Terminal Aerodrome Forecast
Issued by NWS Wilmington, OH

Current Version | Previous Version | Graphics & Text | Print | Product List | Glossary On
Versions: 1 2 3 4 5 6 7 8 9 10 11 12 13 14 15 16 17 18 19 20 21 22 23 24 25 26 27 28
000
FTUS41 KILN 211700 AAB
TAFILN
TAF AMD
KILN 211708Z 2117/2212 23008KT 5SM -SHRA BR SCT050 OVC100
      TEMPO 2117/2118 2SM -TSRA BR BKN040CB
     FM211900 22009KT P6SM SCT025 BKN080
     FM220000 22005KT P6SM SCT050 BKN150
     FM221100 22005KT P6SM BKN040=

USA.gov is the U.S. government's official web portal to all federal, state and local government web resources and services.